sensor_id;sensor_type;location;lat;lon;timestamp;P1;durP1;ratioP1;P2;durP2;ratioP2
53271;SDS011;39160;48.580;7.756;2022-08-19T00:00:54;10.27;;;7.70;;
53271;SDS011;39160;48.580;7.756;2022-08-19T00:05:45;14.15;;;9.43;;
53271;SDS011;39160;48.580;7.756;2022-08-19T00:10:35;12.32;;;8.27;;
53271;SDS011;39160;48.580;7.756;2022-08-19T00:15:26;17.15;;;8.68;;
53271;SDS011;39160;48.580;7.756;2022-08-19T00:20:18;14.38;;;9.43;;
53271;SDS011;39160;48.580;7.756;2022-08-19T00:25:11;15.77;;;9.23;;
53271;SDS011;39160;48.580;7.756;2022-08-19T00:30:03;14.35;;;9.52;;
53271;SDS011;39160;48.580;7.756;2022-08-19T00:34:55;11.55;;;8.50;;
53271;SDS011;39160;48.580;7.756;2022-08-19T00:39:46;11.95;;;8.90;;
53271;SDS011;39160;48.580;7.756;2022-08-19T00:44:37;12.75;;;8.35;;
53271;SDS011;39160;48.580;7.756;2022-08-19T00:49:32;14.20;;;9.55;;
53271;SDS011;39160;48.580;7.756;2022-08-19T00:54:27;12.75;;;8.35;;
53271;SDS011;39160;48.580;7.756;2022-08-19T00:59:21;14.37;;;8.67;;
53271;SDS011;39160;48.580;7.756;2022-08-19T01:04:12;14.63;;;9.35;;
53271;SDS011;39160;48.580;7.756;2022-08-19T01:09:03;12.00;;;7.65;;
53271;SDS011;39160;48.580;7.756;2022-08-19T01:13:55;15.45;;;9.90;;
53271;SDS011;39160;48.580;7.756;2022-08-19T01:18:46;11.82;;;8.15;;
53271;SDS011;39160;48.580;7.756;2022-08-19T01:23:37;11.98;;;8.20;;
53271;SDS011;39160;48.580;7.756;2022-08-19T01:28:35;12.25;;;8.27;;
53271;SDS011;39160;48.580;7.756;2022-08-19T01:33:26;12.93;;;8.55;;
53271;SDS011;39160;48.580;7.756;2022-08-19T01:38:22;11.85;;;7.90;;
53271;SDS011;39160;48.580;7.756;2022-08-19T01:43:14;14.88;;;8.25;;
53271;SDS011;39160;48.580;7.756;2022-08-19T01:48:05;10.02;;;7.40;;
53271;SDS011;39160;48.580;7.756;2022-08-19T01:52:57;13.27;;;8.20;;
53271;SDS011;39160;48.580;7.756;2022-08-19T01:57:50;13.10;;;8.10;;
53271;SDS011;39160;48.580;7.756;2022-08-19T02:02:44;9.52;;;7.25;;
53271;SDS011;39160;48.580;7.756;2022-08-19T02:07:35;12.35;;;7.75;;
53271;SDS011;39160;48.580;7.756;2022-08-19T02:12:26;13.82;;;8.30;;
53271;SDS011;39160;48.580;7.756;2022-08-19T02:17:17;10.15;;;7.70;;
53271;SDS011;39160;48.580;7.756;2022-08-19T02:22:08;13.10;;;8.05;;
53271;SDS011;39160;48.580;7.756;2022-08-19T02:26:58;11.27;;;7.32;;
53271;SDS011;39160;48.580;7.756;2022-08-19T02:31:49;14.70;;;9.48;;
53271;SDS011;39160;48.580;7.756;2022-08-19T02:36:40;13.32;;;8.75;;
53271;SDS011;39160;48.580;7.756;2022-08-19T02:41:31;12.93;;;8.88;;
53271;SDS011;39160;48.580;7.756;2022-08-19T02:46:27;13.48;;;8.75;;
53271;SDS011;39160;48.580;7.756;2022-08-19T02:51:23;12.85;;;9.20;;
53271;SDS011;39160;48.580;7.756;2022-08-19T02:56:16;14.23;;;9.23;;
53271;SDS011;39160;48.580;7.756;2022-08-19T03:01:07;13.43;;;8.75;;
53271;SDS011;39160;48.580;7.756;2022-08-19T03:06:11;12.50;;;8.98;;
53271;SDS011;39160;48.580;7.756;2022-08-19T03:11:03;16.67;;;9.90;;
53271;SDS011;39160;48.580;7.756;2022-08-19T03:15:54;13.95;;;9.23;;
53271;SDS011;39160;48.580;7.756;2022-08-19T03:20:48;16.35;;;10.27;;
53271;SDS011;39160;48.580;7.756;2022-08-19T03:25:44;16.70;;;9.85;;
53271;SDS011;39160;48.580;7.756;2022-08-19T03:30:36;16.33;;;10.35;;
53271;SDS011;39160;48.580;7.756;2022-08-19T03:35:27;17.55;;;9.88;;
53271;SDS011;39160;48.580;7.756;2022-08-19T03:40:18;19.42;;;12.15;;
53271;SDS011;39160;48.580;7.756;2022-08-19T03:45:08;17.23;;;11.68;;
53271;SDS011;39160;48.580;7.756;2022-08-19T03:50:00;16.77;;;10.70;;
53271;SDS011;39160;48.580;7.756;2022-08-19T03:54:51;21.00;;;11.70;;
53271;SDS011;39160;48.580;7.756;2022-08-19T03:59:41;17.02;;;11.20;;
53271;SDS011;39160;48.580;7.756;2022-08-19T04:04:33;18.13;;;11.90;;
53271;SDS011;39160;48.580;7.756;2022-08-19T04:09:24;18.80;;;13.30;;
53271;SDS011;39160;48.580;7.756;2022-08-19T04:14:16;17.85;;;12.18;;
53271;SDS011;39160;48.580;7.756;2022-08-19T04:19:08;17.20;;;11.25;;
53271;SDS011;39160;48.580;7.756;2022-08-19T04:23:59;15.15;;;10.50;;
53271;SDS011;39160;48.580;7.756;2022-08-19T04:28:49;17.88;;;12.13;;
53271;SDS011;39160;48.580;7.756;2022-08-19T04:33:41;19.30;;;12.35;;
53271;SDS011;39160;48.580;7.756;2022-08-19T04:38:32;22.08;;;13.73;;
53271;SDS011;39160;48.580;7.756;2022-08-19T04:43:22;19.77;;;11.98;;
53271;SDS011;39160;48.580;7.756;2022-08-19T04:48:13;16.95;;;11.90;;
53271;SDS011;39160;48.580;7.756;2022-08-19T04:53:04;17.17;;;11.32;;
53271;SDS011;39160;48.580;7.756;2022-08-19T04:57:55;18.52;;;13.20;;
53271;SDS011;39160;48.580;7.756;2022-08-19T05:02:45;22.30;;;13.02;;
53271;SDS011;39160;48.580;7.756;2022-08-19T05:07:36;20.95;;;12.73;;
53271;SDS011;39160;48.580;7.756;2022-08-19T05:12:27;18.10;;;11.45;;
53271;SDS011;39160;48.580;7.756;2022-08-19T05:17:18;18.80;;;13.48;;
53271;SDS011;39160;48.580;7.756;2022-08-19T05:22:09;17.05;;;11.82;;
53271;SDS011;39160;48.580;7.756;2022-08-19T05:27:18;17.90;;;11.02;;
53271;SDS011;39160;48.580;7.756;2022-08-19T05:32:09;19.60;;;10.85;;
53271;SDS011;39160;48.580;7.756;2022-08-19T05:37:00;14.40;;;10.55;;
53271;SDS011;39160;48.580;7.756;2022-08-19T05:41:56;15.63;;;11.20;;
53271;SDS011;39160;48.580;7.756;2022-08-19T05:46:49;13.65;;;10.10;;
53271;SDS011;39160;48.580;7.756;2022-08-19T05:51:47;17.30;;;10.75;;
53271;SDS011;39160;48.580;7.756;2022-08-19T05:56:39;15.98;;;11.80;;
53271;SDS011;39160;48.580;7.756;2022-08-19T06:01:31;18.25;;;11.27;;
53271;SDS011;39160;48.580;7.756;2022-08-19T06:06:21;18.52;;;10.95;;
53271;SDS011;39160;48.580;7.756;2022-08-19T06:11:13;17.38;;;12.35;;
53271;SDS011;39160;48.580;7.756;2022-08-19T06:16:10;18.13;;;11.98;;
53271;SDS011;39160;48.580;7.756;2022-08-19T06:21:01;17.67;;;10.40;;
53271;SDS011;39160;48.580;7.756;2022-08-19T06:25:54;18.52;;;11.57;;
53271;SDS011;39160;48.580;7.756;2022-08-19T06:30:44;14.13;;;9.73;;
53271;SDS011;39160;48.580;7.756;2022-08-19T06:35:38;17.17;;;10.82;;
53271;SDS011;39160;48.580;7.756;2022-08-19T06:40:32;15.88;;;11.48;;
53271;SDS011;39160;48.580;7.756;2022-08-19T06:45:23;15.98;;;10.73;;
53271;SDS011;39160;48.580;7.756;2022-08-19T06:50:14;15.13;;;10.02;;
53271;SDS011;39160;48.580;7.756;2022-08-19T06:55:05;15.88;;;11.02;;
53271;SDS011;39160;48.580;7.756;2022-08-19T06:59:56;19.55;;;11.93;;
53271;SDS011;39160;48.580;7.756;2022-08-19T07:04:47;15.52;;;9.80;;
53271;SDS011;39160;48.580;7.756;2022-08-19T07:09:39;13.55;;;10.00;;
53271;SDS011;39160;48.580;7.756;2022-08-19T07:14:32;17.43;;;11.47;;
53271;SDS011;39160;48.580;7.756;2022-08-19T07:19:26;17.80;;;11.10;;
53271;SDS011;39160;48.580;7.756;2022-08-19T07:24:22;15.35;;;11.00;;
53271;SDS011;39160;48.580;7.756;2022-08-19T07:29:14;18.58;;;11.43;;
53271;SDS011;39160;48.580;7.756;2022-08-19T07:34:07;16.83;;;11.80;;
53271;SDS011;39160;48.580;7.756;2022-08-19T07:39:02;15.88;;;10.75;;
53271;SDS011;39160;48.580;7.756;2022-08-19T07:48:46;17.48;;;11.35;;
53271;SDS011;39160;48.580;7.756;2022-08-19T07:53:39;15.65;;;9.65;;
53271;SDS011;39160;48.580;7.756;2022-08-19T07:58:31;15.57;;;10.40;;
53271;SDS011;39160;48.580;7.756;2022-08-19T08:03:23;14.52;;;11.07;;
53271;SDS011;39160;48.580;7.756;2022-08-19T08:08:34;15.10;;;10.80;;
53271;SDS011;39160;48.580;7.756;2022-08-19T08:13:43;13.48;;;8.60;;
53271;SDS011;39160;48.580;7.756;2022-08-19T08:18:34;13.18;;;9.05;;
53271;SDS011;39160;48.580;7.756;2022-08-19T08:23:31;17.35;;;9.98;;
53271;SDS011;39160;48.580;7.756;2022-08-19T08:28:22;16.17;;;10.57;;
53271;SDS011;39160;48.580;7.756;2022-08-19T08:33:13;11.90;;;8.88;;
53271;SDS011;39160;48.580;7.756;2022-08-19T08:38:07;16.33;;;11.35;;
53271;SDS011;39160;48.580;7.756;2022-08-19T08:43:13;13.55;;;9.48;;
53271;SDS011;39160;48.580;7.756;2022-08-19T08:48:24;13.43;;;9.70;;
53271;SDS011;39160;48.580;7.756;2022-08-19T08:53:27;11.98;;;10.07;;
53271;SDS011;39160;48.580;7.756;2022-08-19T08:58:24;12.95;;;8.95;;
53271;SDS011;39160;48.580;7.756;2022-08-19T09:03:31;14.23;;;8.90;;
53271;SDS011;39160;48.580;7.756;2022-08-19T09:18:19;12.02;;;8.40;;
53271;SDS011;39160;48.580;7.756;2022-08-19T09:23:09;12.13;;;8.80;;
53271;SDS011;39160;48.580;7.756;2022-08-19T09:28:00;11.68;;;8.05;;
53271;SDS011;39160;48.580;7.756;2022-08-19T09:32:54;12.85;;;8.05;;
53271;SDS011;39160;48.580;7.756;2022-08-19T09:37:45;13.48;;;9.30;;
53271;SDS011;39160;48.580;7.756;2022-08-19T09:42:36;11.77;;;8.63;;
53271;SDS011;39160;48.580;7.756;2022-08-19T09:47:27;11.68;;;8.15;;
53271;SDS011;39160;48.580;7.756;2022-08-19T09:52:18;17.00;;;10.25;;
53271;SDS011;39160;48.580;7.756;2022-08-19T09:57:08;12.05;;;9.00;;
53271;SDS011;39160;48.580;7.756;2022-08-19T10:01:59;17.45;;;9.80;;
53271;SDS011;39160;48.580;7.756;2022-08-19T10:06:50;12.82;;;9.10;;
53271;SDS011;39160;48.580;7.756;2022-08-19T10:11:42;13.88;;;9.88;;
53271;SDS011;39160;48.580;7.756;2022-08-19T10:16:38;14.68;;;9.20;;
53271;SDS011;39160;48.580;7.756;2022-08-19T10:21:31;12.20;;;9.50;;
53271;SDS011;39160;48.580;7.756;2022-08-19T10:26:25;15.85;;;10.35;;
53271;SDS011;39160;48.580;7.756;2022-08-19T10:31:23;12.73;;;8.68;;
53271;SDS011;39160;48.580;7.756;2022-08-19T10:36:19;13.90;;;10.90;;
53271;SDS011;39160;48.580;7.756;2022-08-19T10:41:13;11.88;;;9.13;;
53271;SDS011;39160;48.580;7.756;2022-08-19T10:46:07;16.45;;;9.65;;
53271;SDS011;39160;48.580;7.756;2022-08-19T10:51:00;13.40;;;10.00;;
53271;SDS011;39160;48.580;7.756;2022-08-19T10:56:09;12.88;;;8.45;;
53271;SDS011;39160;48.580;7.756;2022-08-19T11:01:18;14.57;;;10.63;;
53271;SDS011;39160;48.580;7.756;2022-08-19T11:06:09;12.05;;;9.05;;
53271;SDS011;39160;48.580;7.756;2022-08-19T11:11:00;11.30;;;8.35;;
53271;SDS011;39160;48.580;7.756;2022-08-19T11:15:56;12.80;;;8.57;;
53271;SDS011;39160;48.580;7.756;2022-08-19T11:20:51;11.00;;;8.15;;
53271;SDS011;39160;48.580;7.756;2022-08-19T11:25:41;10.25;;;7.70;;
53271;SDS011;39160;48.580;7.756;2022-08-19T11:30:32;11.18;;;8.15;;
53271;SDS011;39160;48.580;7.756;2022-08-19T11:35:23;10.32;;;8.25;;
53271;SDS011;39160;48.580;7.756;2022-08-19T11:40:14;8.52;;;6.85;;
53271;SDS011;39160;48.580;7.756;2022-08-19T11:45:05;7.95;;;7.15;;
53271;SDS011;39160;48.580;7.756;2022-08-19T11:49:56;7.68;;;6.10;;
53271;SDS011;39160;48.580;7.756;2022-08-19T11:54:47;8.50;;;5.70;;
53271;SDS011;39160;48.580;7.756;2022-08-19T11:59:38;8.68;;;6.07;;
53271;SDS011;39160;48.580;7.756;2022-08-19T12:04:28;5.45;;;4.25;;
53271;SDS011;39160;48.580;7.756;2022-08-19T12:09:19;6.93;;;5.50;;
53271;SDS011;39160;48.580;7.756;2022-08-19T12:14:12;7.57;;;4.85;;
53271;SDS011;39160;48.580;7.756;2022-08-19T12:19:07;7.75;;;5.40;;
53271;SDS011;39160;48.580;7.756;2022-08-19T12:23:58;7.07;;;5.80;;
53271;SDS011;39160;48.580;7.756;2022-08-19T12:28:50;7.05;;;5.35;;
53271;SDS011;39160;48.580;7.756;2022-08-19T12:33:41;6.85;;;5.80;;
53271;SDS011;39160;48.580;7.756;2022-08-19T12:38:32;7.10;;;5.90;;
53271;SDS011;39160;48.580;7.756;2022-08-19T12:43:27;10.68;;;5.97;;
53271;SDS011;39160;48.580;7.756;2022-08-19T12:48:20;6.97;;;5.05;;
53271;SDS011;39160;48.580;7.756;2022-08-19T12:53:11;6.63;;;5.05;;
53271;SDS011;39160;48.580;7.756;2022-08-19T12:58:02;8.95;;;5.38;;
53271;SDS011;39160;48.580;7.756;2022-08-19T13:02:54;6.85;;;5.45;;
53271;SDS011;39160;48.580;7.756;2022-08-19T13:07:45;5.53;;;4.97;;
53271;SDS011;39160;48.580;7.756;2022-08-19T13:12:36;5.88;;;4.40;;
53271;SDS011;39160;48.580;7.756;2022-08-19T13:17:27;7.82;;;4.70;;
53271;SDS011;39160;48.580;7.756;2022-08-19T13:22:18;5.45;;;4.95;;
53271;SDS011;39160;48.580;7.756;2022-08-19T13:27:08;5.72;;;4.60;;
53271;SDS011;39160;48.580;7.756;2022-08-19T13:31:59;6.78;;;5.10;;
53271;SDS011;39160;48.580;7.756;2022-08-19T13:37:08;6.10;;;4.00;;
53271;SDS011;39160;48.580;7.756;2022-08-19T13:41:59;8.07;;;4.57;;
53271;SDS011;39160;48.580;7.756;2022-08-19T13:46:51;6.07;;;4.43;;
53271;SDS011;39160;48.580;7.756;2022-08-19T13:51:43;6.43;;;4.60;;
53271;SDS011;39160;48.580;7.756;2022-08-19T13:56:35;5.32;;;4.80;;
53271;SDS011;39160;48.580;7.756;2022-08-19T14:01:29;7.00;;;5.35;;
53271;SDS011;39160;48.580;7.756;2022-08-19T14:06:20;6.00;;;5.40;;
53271;SDS011;39160;48.580;7.756;2022-08-19T14:11:12;6.00;;;4.63;;
53271;SDS011;39160;48.580;7.756;2022-08-19T14:16:09;5.10;;;4.60;;
53271;SDS011;39160;48.580;7.756;2022-08-19T14:21:02;5.00;;;4.60;;
53271;SDS011;39160;48.580;7.756;2022-08-19T14:30:53;6.60;;;4.75;;
53271;SDS011;39160;48.580;7.756;2022-08-19T14:35:44;6.78;;;5.32;;
53271;SDS011;39160;48.580;7.756;2022-08-19T14:40:34;6.90;;;4.43;;
53271;SDS011;39160;48.580;7.756;2022-08-19T14:45:26;5.13;;;4.72;;
53271;SDS011;39160;48.580;7.756;2022-08-19T14:50:18;7.00;;;5.05;;
53271;SDS011;39160;48.580;7.756;2022-08-19T14:55:09;6.35;;;5.60;;
53271;SDS011;39160;48.580;7.756;2022-08-19T15:00:00;5.47;;;4.97;;
53271;SDS011;39160;48.580;7.756;2022-08-19T15:04:50;7.17;;;5.67;;
53271;SDS011;39160;48.580;7.756;2022-08-19T15:09:42;7.10;;;5.97;;
53271;SDS011;39160;48.580;7.756;2022-08-19T15:14:35;6.30;;;5.07;;
53271;SDS011;39160;48.580;7.756;2022-08-19T15:19:28;8.25;;;6.05;;
53271;SDS011;39160;48.580;7.756;2022-08-19T15:24:19;6.63;;;5.82;;
53271;SDS011;39160;48.580;7.756;2022-08-19T15:29:10;6.13;;;5.53;;
53271;SDS011;39160;48.580;7.756;2022-08-19T15:34:04;7.35;;;5.85;;
53271;SDS011;39160;48.580;7.756;2022-08-19T15:38:58;7.38;;;6.22;;
53271;SDS011;39160;48.580;7.756;2022-08-19T15:43:54;6.10;;;5.40;;
53271;SDS011;39160;48.580;7.756;2022-08-19T15:48:50;7.80;;;5.73;;
53271;SDS011;39160;48.580;7.756;2022-08-19T15:58:32;5.95;;;5.35;;
53271;SDS011;39160;48.580;7.756;2022-08-19T16:03:41;5.68;;;5.05;;
53271;SDS011;39160;48.580;7.756;2022-08-19T16:08:55;5.93;;;4.35;;
53271;SDS011;39160;48.580;7.756;2022-08-19T16:13:48;4.25;;;3.70;;
53271;SDS011;39160;48.580;7.756;2022-08-19T16:18:40;4.72;;;3.55;;
53271;SDS011;39160;48.580;7.756;2022-08-19T16:23:31;6.95;;;2.85;;
53271;SDS011;39160;48.580;7.756;2022-08-19T16:28:22;3.80;;;3.40;;
53271;SDS011;39160;48.580;7.756;2022-08-19T16:33:13;4.55;;;2.70;;
53271;SDS011;39160;48.580;7.756;2022-08-19T16:38:04;3.85;;;3.10;;
53271;SDS011;39160;48.580;7.756;2022-08-19T16:42:55;3.55;;;2.63;;
53271;SDS011;39160;48.580;7.756;2022-08-19T16:47:46;3.92;;;2.90;;
53271;SDS011;39160;48.580;7.756;2022-08-19T16:52:37;5.70;;;2.30;;
53271;SDS011;39160;48.580;7.756;2022-08-19T16:57:27;2.83;;;2.20;;
53271;SDS011;39160;48.580;7.756;2022-08-19T17:02:19;3.83;;;2.38;;
53271;SDS011;39160;48.580;7.756;2022-08-19T17:07:12;3.15;;;1.95;;
53271;SDS011;39160;48.580;7.756;2022-08-19T17:12:02;2.30;;;2.10;;
53271;SDS011;39160;48.580;7.756;2022-08-19T17:16:53;3.88;;;2.08;;
53271;SDS011;39160;48.580;7.756;2022-08-19T17:21:44;4.63;;;2.33;;
53271;SDS011;39160;48.580;7.756;2022-08-19T17:26:36;2.50;;;2.10;;
53271;SDS011;39160;48.580;7.756;2022-08-19T17:31:28;3.90;;;1.80;;
53271;SDS011;39160;48.580;7.756;2022-08-19T17:36:20;3.67;;;2.08;;
53271;SDS011;39160;48.580;7.756;2022-08-19T17:41:12;2.85;;;1.98;;
53271;SDS011;39160;48.580;7.756;2022-08-19T17:46:03;2.78;;;2.17;;
53271;SDS011;39160;48.580;7.756;2022-08-19T17:50:54;2.90;;;1.55;;
53271;SDS011;39160;48.580;7.756;2022-08-19T17:55:45;2.60;;;2.00;;
53271;SDS011;39160;48.580;7.756;2022-08-19T18:00:35;3.25;;;1.98;;
53271;SDS011;39160;48.580;7.756;2022-08-19T18:05:30;2.13;;;1.60;;
53271;SDS011;39160;48.580;7.756;2022-08-19T18:10:23;3.42;;;1.45;;
53271;SDS011;39160;48.580;7.756;2022-08-19T18:15:15;2.30;;;1.60;;
53271;SDS011;39160;48.580;7.756;2022-08-19T18:20:08;1.80;;;1.35;;
53271;SDS011;39160;48.580;7.756;2022-08-19T18:25:01;2.10;;;1.45;;
53271;SDS011;39160;48.580;7.756;2022-08-19T18:29:55;2.50;;;1.60;;
53271;SDS011;39160;48.580;7.756;2022-08-19T18:34:48;2.15;;;1.38;;
53271;SDS011;39160;48.580;7.756;2022-08-19T18:39:38;5.13;;;1.17;;
53271;SDS011;39160;48.580;7.756;2022-08-19T18:44:47;3.33;;;1.73;;
53271;SDS011;39160;48.580;7.756;2022-08-19T18:49:56;1.85;;;1.60;;
53271;SDS011;39160;48.580;7.756;2022-08-19T18:54:51;2.13;;;1.15;;
53271;SDS011;39160;48.580;7.756;2022-08-19T18:59:41;2.85;;;1.10;;
53271;SDS011;39160;48.580;7.756;2022-08-19T19:04:35;2.78;;;0.90;;
53271;SDS011;39160;48.580;7.756;2022-08-19T19:09:27;1.80;;;1.13;;
53271;SDS011;39160;48.580;7.756;2022-08-19T19:14:19;3.25;;;1.08;;
53271;SDS011;39160;48.580;7.756;2022-08-19T19:19:24;5.05;;;2.33;;
53271;SDS011;39160;48.580;7.756;2022-08-19T19:24:16;1.75;;;1.00;;
53271;SDS011;39160;48.580;7.756;2022-08-19T19:29:12;2.08;;;1.02;;
53271;SDS011;39160;48.580;7.756;2022-08-19T19:34:03;2.35;;;1.10;;
53271;SDS011;39160;48.580;7.756;2022-08-19T19:38:54;1.63;;;1.08;;
53271;SDS011;39160;48.580;7.756;2022-08-19T19:43:44;1.58;;;0.98;;
53271;SDS011;39160;48.580;7.756;2022-08-19T19:48:35;1.40;;;1.08;;
53271;SDS011;39160;48.580;7.756;2022-08-19T19:53:27;2.00;;;1.65;;
53271;SDS011;39160;48.580;7.756;2022-08-19T19:58:18;3.05;;;1.50;;
53271;SDS011;39160;48.580;7.756;2022-08-19T20:03:08;2.30;;;1.15;;
53271;SDS011;39160;48.580;7.756;2022-08-19T20:07:59;1.17;;;0.90;;
53271;SDS011;39160;48.580;7.756;2022-08-19T20:13:10;1.10;;;0.80;;
53271;SDS011;39160;48.580;7.756;2022-08-19T20:18:02;2.58;;;0.93;;
53271;SDS011;39160;48.580;7.756;2022-08-19T20:22:53;1.33;;;0.80;;
53271;SDS011;39160;48.580;7.756;2022-08-19T20:27:44;1.25;;;0.90;;
53271;SDS011;39160;48.580;7.756;2022-08-19T20:32:35;1.83;;;0.85;;
53271;SDS011;39160;48.580;7.756;2022-08-19T20:37:25;4.13;;;1.33;;
53271;SDS011;39160;48.580;7.756;2022-08-19T20:42:17;2.63;;;1.05;;
53271;SDS011;39160;48.580;7.756;2022-08-19T20:47:08;2.03;;;0.75;;
53271;SDS011;39160;48.580;7.756;2022-08-19T20:51:58;1.48;;;0.90;;
53271;SDS011;39160;48.580;7.756;2022-08-19T20:56:49;2.38;;;0.93;;
53271;SDS011;39160;48.580;7.756;2022-08-19T21:01:40;3.30;;;0.82;;
53271;SDS011;39160;48.580;7.756;2022-08-19T21:06:31;2.05;;;0.82;;
53271;SDS011;39160;48.580;7.756;2022-08-19T21:11:22;1.52;;;0.95;;
53271;SDS011;39160;48.580;7.756;2022-08-19T21:16:12;4.78;;;0.90;;
53271;SDS011;39160;48.580;7.756;2022-08-19T21:21:03;3.55;;;0.70;;
53271;SDS011;39160;48.580;7.756;2022-08-19T21:25:55;4.53;;;1.52;;
53271;SDS011;39160;48.580;7.756;2022-08-19T21:30:47;1.27;;;0.70;;
53271;SDS011;39160;48.580;7.756;2022-08-19T21:35:38;1.33;;;0.63;;
53271;SDS011;39160;48.580;7.756;2022-08-19T21:40:29;1.50;;;0.73;;
53271;SDS011;39160;48.580;7.756;2022-08-19T21:45:19;1.20;;;0.85;;
53271;SDS011;39160;48.580;7.756;2022-08-19T21:50:11;0.68;;;0.68;;
53271;SDS011;39160;48.580;7.756;2022-08-19T21:55:03;1.40;;;0.82;;
53271;SDS011;39160;48.580;7.756;2022-08-19T21:59:55;2.53;;;1.33;;
53271;SDS011;39160;48.580;7.756;2022-08-19T22:04:46;2.42;;;1.10;;
53271;SDS011;39160;48.580;7.756;2022-08-19T22:09:37;1.65;;;1.10;;
53271;SDS011;39160;48.580;7.756;2022-08-19T22:14:32;1.63;;;0.90;;
53271;SDS011;39160;48.580;7.756;2022-08-19T22:19:23;1.52;;;1.42;;
53271;SDS011;39160;48.580;7.756;2022-08-19T22:24:14;3.38;;;1.13;;
53271;SDS011;39160;48.580;7.756;2022-08-19T22:29:04;1.23;;;0.90;;
53271;SDS011;39160;48.580;7.756;2022-08-19T22:33:55;1.10;;;0.80;;
53271;SDS011;39160;48.580;7.756;2022-08-19T22:38:46;0.75;;;0.70;;
53271;SDS011;39160;48.580;7.756;2022-08-19T22:43:36;1.45;;;1.02;;
53271;SDS011;39160;48.580;7.756;2022-08-19T22:48:27;1.63;;;1.13;;
53271;SDS011;39160;48.580;7.756;2022-08-19T22:53:21;1.37;;;1.03;;
53271;SDS011;39160;48.580;7.756;2022-08-19T22:58:12;1.35;;;1.00;;
53271;SDS011;39160;48.580;7.756;2022-08-19T23:03:02;1.52;;;1.00;;
53271;SDS011;39160;48.580;7.756;2022-08-19T23:07:54;2.05;;;1.20;;
53271;SDS011;39160;48.580;7.756;2022-08-19T23:12:46;1.77;;;0.80;;
53271;SDS011;39160;48.580;7.756;2022-08-19T23:17:37;1.50;;;1.00;;
53271;SDS011;39160;48.580;7.756;2022-08-19T23:22:31;1.42;;;1.05;;
53271;SDS011;39160;48.580;7.756;2022-08-19T23:27:22;1.35;;;0.88;;
53271;SDS011;39160;48.580;7.756;2022-08-19T23:32:34;0.95;;;0.80;;
53271;SDS011;39160;48.580;7.756;2022-08-19T23:37:25;1.85;;;1.10;;
53271;SDS011;39160;48.580;7.756;2022-08-19T23:42:15;1.38;;;0.80;;
53271;SDS011;39160;48.580;7.756;2022-08-19T23:47:06;1.08;;;0.90;;
53271;SDS011;39160;48.580;7.756;2022-08-19T23:51:57;1.33;;;0.82;;
53271;SDS011;39160;48.580;7.756;2022-08-19T23:56:47;0.93;;;0.60;;
